sensor_id;sensor_type;location;lat;lon;timestamp;pressure;altitude;pressure_sealevel;temperature;humidity
13478;BME280;12598;62.382;17.344;2022-07-22T00:00:35;101371.78;;;27.29;35.42
13478;BME280;12598;62.382;17.344;2022-07-22T00:01:37;101373.28;;;27.32;35.64
13478;BME280;12598;62.382;17.344;2022-07-22T00:02:39;101347.22;;;27.17;35.51
13478;BME280;12598;62.382;17.344;2022-07-22T00:03:41;101373.28;;;27.32;35.56
13478;BME280;12598;62.382;17.344;2022-07-22T00:04:43;101375.34;;;27.30;35.55
13478;BME280;12598;62.382;17.344;2022-07-22T00:05:45;101373.03;;;27.27;35.62
13478;BME280;12598;62.382;17.344;2022-07-22T00:06:47;101383.50;;;27.30;35.40
13478;BME280;12598;62.382;17.344;2022-07-22T00:07:49;101376.94;;;27.24;35.79
13478;BME280;12598;62.382;17.344;2022-07-22T00:08:51;101363.59;;;27.23;35.62
13478;BME280;12598;62.382;17.344;2022-07-22T00:09:53;101361.22;;;27.20;35.32
13478;BME280;12598;62.382;17.344;2022-07-22T00:10:55;101371.13;;;27.27;35.40
13478;BME280;12598;62.382;17.344;2022-07-22T00:11:57;101373.19;;;27.25;35.13
13478;BME280;12598;62.382;17.344;2022-07-22T00:12:59;101369.19;;;27.22;35.28
13478;BME280;12598;62.382;17.344;2022-07-22T00:14:01;101356.66;;;27.21;35.41
13478;BME280;12598;62.382;17.344;2022-07-22T00:15:05;101374.06;;;27.26;34.93
13478;BME280;12598;62.382;17.344;2022-07-22T00:16:07;101369.00;;;27.23;35.11
13478;BME280;12598;62.382;17.344;2022-07-22T00:17:09;101371.53;;;27.24;35.33
13478;BME280;12598;62.382;17.344;2022-07-22T00:18:11;101356.19;;;27.17;35.31
13478;BME280;12598;62.382;17.344;2022-07-22T00:19:13;101361.59;;;27.17;35.09
13478;BME280;12598;62.382;17.344;2022-07-22T00:20:15;101347.22;;;27.17;35.09
13478;BME280;12598;62.382;17.344;2022-07-22T00:21:17;101361.91;;;27.22;35.35
13478;BME280;12598;62.382;17.344;2022-07-22T00:22:18;101359.84;;;27.24;35.14
13478;BME280;12598;62.382;17.344;2022-07-22T00:23:21;101367.13;;;27.23;34.69
13478;BME280;12598;62.382;17.344;2022-07-22T00:24:23;101364.22;;;27.25;35.09
13478;BME280;12598;62.382;17.344;2022-07-22T00:25:25;101353.06;;;27.20;35.11
13478;BME280;12598;62.382;17.344;2022-07-22T00:26:27;101347.38;;;27.15;34.71
13478;BME280;12598;62.382;17.344;2022-07-22T00:27:29;101350.97;;;27.16;35.22
13478;BME280;12598;62.382;17.344;2022-07-22T00:28:31;101340.28;;;27.14;34.78
13478;BME280;12598;62.382;17.344;2022-07-22T00:29:33;101341.13;;;27.15;34.70
13478;BME280;12598;62.382;17.344;2022-07-22T00:30:35;101357.47;;;27.21;34.91
13478;BME280;12598;62.382;17.344;2022-07-22T00:31:37;101341.56;;;27.18;34.55
13478;BME280;12598;62.382;17.344;2022-07-22T00:32:39;101340.91;;;27.16;34.55
13478;BME280;12598;62.382;17.344;2022-07-22T00:33:41;101351.22;;;27.21;34.85
13478;BME280;12598;62.382;17.344;2022-07-22T00:34:43;101346.81;;;27.20;34.73
13478;BME280;12598;62.382;17.344;2022-07-22T00:35:45;101337.13;;;27.11;35.05
13478;BME280;12598;62.382;17.344;2022-07-22T00:36:47;101352.44;;;27.18;34.95
13478;BME280;12598;62.382;17.344;2022-07-22T00:37:49;101362.66;;;27.16;34.93
13478;BME280;12598;62.382;17.344;2022-07-22T00:38:51;101354.25;;;27.11;34.54
13478;BME280;12598;62.382;17.344;2022-07-22T00:39:53;101366.00;;;27.18;34.71
13478;BME280;12598;62.382;17.344;2022-07-22T00:40:55;101366.88;;;27.19;34.58
13478;BME280;12598;62.382;17.344;2022-07-22T00:41:58;101378.94;;;27.16;34.56
13478;BME280;12598;62.382;17.344;2022-07-22T00:43:01;101363.50;;;27.17;34.11
13478;BME280;12598;62.382;17.344;2022-07-22T00:44:06;101369.97;;;27.16;34.79
13478;BME280;12598;62.382;17.344;2022-07-22T00:45:08;101356.31;;;27.09;34.65
13478;BME280;12598;62.382;17.344;2022-07-22T00:46:10;101367.91;;;27.18;34.37
13478;BME280;12598;62.382;17.344;2022-07-22T00:47:12;101368.47;;;27.13;34.64
13478;BME280;12598;62.382;17.344;2022-07-22T00:48:14;101365.34;;;27.16;34.30
13478;BME280;12598;62.382;17.344;2022-07-22T00:49:16;101365.09;;;27.11;34.32
13478;BME280;12598;62.382;17.344;2022-07-22T00:50:18;101372.59;;;27.09;34.22
13478;BME280;12598;62.382;17.344;2022-07-22T00:51:23;101360.41;;;27.05;34.05
13478;BME280;12598;62.382;17.344;2022-07-22T00:52:25;101371.19;;;27.13;34.16
13478;BME280;12598;62.382;17.344;2022-07-22T00:53:28;101377.25;;;27.15;34.14
13478;BME280;12598;62.382;17.344;2022-07-22T00:54:30;101379.97;;;27.15;34.28
13478;BME280;12598;62.382;17.344;2022-07-22T00:55:33;101354.97;;;27.05;34.18
13478;BME280;12598;62.382;17.344;2022-07-22T00:56:35;101363.13;;;27.05;34.30
13478;BME280;12598;62.382;17.344;2022-07-22T00:57:39;101355.75;;;26.99;34.48
13478;BME280;12598;62.382;17.344;2022-07-22T00:58:41;101379.31;;;27.13;34.25
13478;BME280;12598;62.382;17.344;2022-07-22T00:59:44;101385.13;;;27.10;34.11
13478;BME280;12598;62.382;17.344;2022-07-22T01:00:46;101371.19;;;26.99;34.48
13478;BME280;12598;62.382;17.344;2022-07-22T01:01:48;101384.09;;;27.11;34.18
13478;BME280;12598;62.382;17.344;2022-07-22T01:02:50;101375.41;;;27.01;34.30
13478;BME280;12598;62.382;17.344;2022-07-22T01:03:53;101377.72;;;27.04;33.95
13478;BME280;12598;62.382;17.344;2022-07-22T01:05:02;101368.75;;;27.04;34.04
13478;BME280;12598;62.382;17.344;2022-07-22T01:06:04;101369.59;;;27.04;34.16
13478;BME280;12598;62.382;17.344;2022-07-22T01:07:07;101364.16;;;27.04;33.85
13478;BME280;12598;62.382;17.344;2022-07-22T01:08:10;101380.34;;;27.12;34.18
13478;BME280;12598;62.382;17.344;2022-07-22T01:09:13;101392.25;;;27.11;34.18
13478;BME280;12598;62.382;17.344;2022-07-22T01:10:15;101386.81;;;27.11;34.19
13478;BME280;12598;62.382;17.344;2022-07-22T01:11:19;101393.50;;;27.09;33.97
13478;BME280;12598;62.382;17.344;2022-07-22T01:12:21;101384.56;;;27.00;34.30
13478;BME280;12598;62.382;17.344;2022-07-22T01:13:23;101406.03;;;27.10;33.82
13478;BME280;12598;62.382;17.344;2022-07-22T01:14:25;101418.94;;;27.08;34.10
13478;BME280;12598;62.382;17.344;2022-07-22T01:15:26;101414.25;;;27.02;33.93
13478;BME280;12598;62.382;17.344;2022-07-22T01:16:28;101416.13;;;27.01;33.74
13478;BME280;12598;62.382;17.344;2022-07-22T01:17:30;101421.47;;;27.09;33.61
13478;BME280;12598;62.382;17.344;2022-07-22T01:18:33;101431.50;;;27.09;33.63
13478;BME280;12598;62.382;17.344;2022-07-22T01:19:36;101417.81;;;27.02;33.71
13478;BME280;12598;62.382;17.344;2022-07-22T01:20:38;101419.50;;;27.03;33.63
13478;BME280;12598;62.382;17.344;2022-07-22T01:21:41;101425.28;;;27.00;34.07
13478;BME280;12598;62.382;17.344;2022-07-22T01:22:43;101411.25;;;26.97;33.99
13478;BME280;12598;62.382;17.344;2022-07-22T01:23:46;101416.13;;;27.01;33.54
13478;BME280;12598;62.382;17.344;2022-07-22T01:24:49;101417.81;;;27.02;33.85
13478;BME280;12598;62.382;17.344;2022-07-22T01:25:51;101404.59;;;26.99;33.58
13478;BME280;12598;62.382;17.344;2022-07-22T01:26:53;101410.88;;;27.00;33.80
13478;BME280;12598;62.382;17.344;2022-07-22T01:27:55;101439.78;;;27.07;33.73
13478;BME280;12598;62.382;17.344;2022-07-22T01:28:58;101417.16;;;27.00;33.73
13478;BME280;12598;62.382;17.344;2022-07-22T01:30:03;101434.56;;;27.06;33.56
13478;BME280;12598;62.382;17.344;2022-07-22T01:31:05;101421.06;;;26.98;33.79
13478;BME280;12598;62.382;17.344;2022-07-22T01:32:08;101424.66;;;26.98;33.56
13478;BME280;12598;62.382;17.344;2022-07-22T01:33:09;101431.75;;;26.99;33.75
13478;BME280;12598;62.382;17.344;2022-07-22T01:34:11;101437.47;;;27.04;33.52
13478;BME280;12598;62.382;17.344;2022-07-22T01:35:14;101443.91;;;27.03;33.60
13478;BME280;12598;62.382;17.344;2022-07-22T01:36:16;101442.88;;;27.04;33.60
13478;BME280;12598;62.382;17.344;2022-07-22T01:37:19;101441.41;;;27.02;33.26
13478;BME280;12598;62.382;17.344;2022-07-22T01:38:21;101430.06;;;26.98;33.48
13478;BME280;12598;62.382;17.344;2022-07-22T01:39:24;101435.88;;;26.95;33.77
13478;BME280;12598;62.382;17.344;2022-07-22T01:40:26;101434.00;;;26.96;33.57
13478;BME280;12598;62.382;17.344;2022-07-22T01:41:28;101436.16;;;27.00;33.68
13478;BME280;12598;62.382;17.344;2022-07-22T01:42:29;101440.94;;;26.98;33.41
13478;BME280;12598;62.382;17.344;2022-07-22T01:43:32;101449.34;;;27.03;33.73
13478;BME280;12598;62.382;17.344;2022-07-22T01:44:35;101447.50;;;27.04;33.33
13478;BME280;12598;62.382;17.344;2022-07-22T01:45:37;101420.53;;;26.88;33.38
13478;BME280;12598;62.382;17.344;2022-07-22T01:46:39;101450.38;;;27.02;33.79
13478;BME280;12598;62.382;17.344;2022-07-22T01:47:41;101441.97;;;26.97;33.45
13478;BME280;12598;62.382;17.344;2022-07-22T01:48:43;101452.28;;;27.02;33.52
13478;BME280;12598;62.382;17.344;2022-07-22T01:49:45;101448.88;;;27.00;33.31
13478;BME280;12598;62.382;17.344;2022-07-22T01:50:48;101440.66;;;26.93;33.55
13478;BME280;12598;62.382;17.344;2022-07-22T01:51:51;101450.50;;;26.94;33.25
13478;BME280;12598;62.382;17.344;2022-07-22T01:52:54;101466.00;;;27.00;33.20
13478;BME280;12598;62.382;17.344;2022-07-22T01:53:57;101459.28;;;26.96;33.32
13478;BME280;12598;62.382;17.344;2022-07-22T01:54:59;101447.94;;;26.93;33.15
13478;BME280;12598;62.382;17.344;2022-07-22T01:56:03;101466.88;;;27.01;33.28
13478;BME280;12598;62.382;17.344;2022-07-22T01:57:10;101445.63;;;26.90;33.28
13478;BME280;12598;62.382;17.344;2022-07-22T01:58:18;101442.25;;;26.88;33.34
13478;BME280;12598;62.382;17.344;2022-07-22T01:59:21;101465.00;;;27.01;33.54
13478;BME280;12598;62.382;17.344;2022-07-22T02:00:23;101458.44;;;26.96;33.43
13478;BME280;12598;62.382;17.344;2022-07-22T02:01:25;101476.03;;;27.00;33.12
13478;BME280;12598;62.382;17.344;2022-07-22T02:02:27;101468.09;;;26.98;33.02
13478;BME280;12598;62.382;17.344;2022-07-22T02:03:29;101453.97;;;26.88;33.43
13478;BME280;12598;62.382;17.344;2022-07-22T02:04:32;101463.41;;;26.92;33.26
13478;BME280;12598;62.382;17.344;2022-07-22T02:05:34;101476.22;;;26.98;33.03
13478;BME280;12598;62.382;17.344;2022-07-22T02:06:43;101465.38;;;26.98;33.14
13478;BME280;12598;62.382;17.344;2022-07-22T02:07:46;101464.34;;;26.99;32.87
13478;BME280;12598;62.382;17.344;2022-07-22T02:08:48;101463.41;;;26.92;33.15
13478;BME280;12598;62.382;17.344;2022-07-22T02:10:13;101454.88;;;26.95;33.05
13478;BME280;12598;62.382;17.344;2022-07-22T02:11:15;101461.78;;;26.98;32.96
13478;BME280;12598;62.382;17.344;2022-07-22T02:12:26;101467.69;;;27.01;32.97
13478;BME280;12598;62.382;17.344;2022-07-22T02:13:27;101451.25;;;26.88;33.05
13478;BME280;12598;62.382;17.344;2022-07-22T02:14:29;101457.97;;;26.92;32.83
13478;BME280;12598;62.382;17.344;2022-07-22T02:15:32;101475.56;;;26.96;33.15
13478;BME280;12598;62.382;17.344;2022-07-22T02:16:35;101453.88;;;26.82;33.07
13478;BME280;12598;62.382;17.344;2022-07-22T02:17:39;101481.00;;;26.96;33.19
13478;BME280;12598;62.382;17.344;2022-07-22T02:18:42;101460.81;;;26.84;32.75
13478;BME280;12598;62.382;17.344;2022-07-22T02:19:44;101484.47;;;26.90;33.27
13478;BME280;12598;62.382;17.344;2022-07-22T02:20:47;101488.88;;;26.91;32.92
13478;BME280;12598;62.382;17.344;2022-07-22T02:21:48;101485.78;;;26.94;32.92
13478;BME280;12598;62.382;17.344;2022-07-22T02:22:50;101470.16;;;26.82;33.05
13478;BME280;12598;62.382;17.344;2022-07-22T02:23:52;101484.66;;;26.89;33.34
13478;BME280;12598;62.382;17.344;2022-07-22T02:24:54;101485.94;;;26.93;33.11
13478;BME280;12598;62.382;17.344;2022-07-22T02:25:56;101486.81;;;26.93;33.39
13478;BME280;12598;62.382;17.344;2022-07-22T02:26:58;101469.97;;;26.83;33.06
13478;BME280;12598;62.382;17.344;2022-07-22T02:28:00;101479.22;;;26.89;33.12
13478;BME280;12598;62.382;17.344;2022-07-22T02:29:02;101474.00;;;26.87;33.15
13478;BME280;12598;62.382;17.344;2022-07-22T02:30:05;101463.91;;;26.81;33.31
13478;BME280;12598;62.382;17.344;2022-07-22T02:31:07;101451.03;;;26.75;33.14
13478;BME280;12598;62.382;17.344;2022-07-22T02:32:09;101485.13;;;26.92;32.73
13478;BME280;12598;62.382;17.344;2022-07-22T02:33:11;101483.44;;;26.91;33.09
13478;BME280;12598;62.382;17.344;2022-07-22T02:34:14;101482.41;;;26.92;32.94
13478;BME280;12598;62.382;17.344;2022-07-22T02:35:16;101485.13;;;26.92;33.06
13478;BME280;12598;62.382;17.344;2022-07-22T02:36:18;101474.38;;;26.84;32.78
13478;BME280;12598;62.382;17.344;2022-07-22T02:37:22;101465.25;;;26.77;33.02
13478;BME280;12598;62.382;17.344;2022-07-22T02:38:24;101494.31;;;26.91;32.92
13478;BME280;12598;62.382;17.344;2022-07-22T02:39:26;101492.41;;;26.92;32.87
13478;BME280;12598;62.382;17.344;2022-07-22T02:40:28;101483.53;;;26.83;32.80
13478;BME280;12598;62.382;17.344;2022-07-22T02:41:31;101487.09;;;26.84;32.87
13478;BME280;12598;62.382;17.344;2022-07-22T02:42:34;101491.75;;;26.90;32.97
13478;BME280;12598;62.382;17.344;2022-07-22T02:43:36;101479.53;;;26.79;32.94
13478;BME280;12598;62.382;17.344;2022-07-22T02:44:38;101476.13;;;26.77;33.15
13478;BME280;12598;62.382;17.344;2022-07-22T02:45:40;101478.66;;;26.79;33.15
13478;BME280;12598;62.382;17.344;2022-07-22T02:46:42;101481.66;;;26.84;33.01
13478;BME280;12598;62.382;17.344;2022-07-22T02:47:58;101489.53;;;26.93;32.68
13478;BME280;12598;62.382;17.344;2022-07-22T02:49:00;101479.53;;;26.79;32.59
13478;BME280;12598;62.382;17.344;2022-07-22T02:50:04;101484.25;;;26.92;32.81
13478;BME280;12598;62.382;17.344;2022-07-22T02:51:06;101469.75;;;26.85;32.50
13478;BME280;12598;62.382;17.344;2022-07-22T02:52:08;101465.56;;;26.82;32.70
13478;BME280;12598;62.382;17.344;2022-07-22T02:53:10;101475.69;;;26.88;32.87
13478;BME280;12598;62.382;17.344;2022-07-22T02:54:13;101459.50;;;26.80;32.85
13478;BME280;12598;62.382;17.344;2022-07-22T02:55:15;101469.59;;;26.86;32.65
13478;BME280;12598;62.382;17.344;2022-07-22T02:56:17;101472.31;;;26.86;32.74
13478;BME280;12598;62.382;17.344;2022-07-22T02:57:21;101482.31;;;26.86;32.89
13478;BME280;12598;62.382;17.344;2022-07-22T02:58:23;101484.84;;;26.87;32.81
13478;BME280;12598;62.382;17.344;2022-07-22T02:59:25;101479.81;;;26.84;32.93
13478;BME280;12598;62.382;17.344;2022-07-22T03:00:27;101479.88;;;26.76;32.74
13478;BME280;12598;62.382;17.344;2022-07-22T03:01:29;101469.38;;;26.73;32.75
13478;BME280;12598;62.382;17.344;2022-07-22T03:02:34;101495.06;;;26.85;32.81
13478;BME280;12598;62.382;17.344;2022-07-22T03:03:35;101467.06;;;26.70;32.85
13478;BME280;12598;62.382;17.344;2022-07-22T03:04:38;101476.97;;;26.78;32.87
13478;BME280;12598;62.382;17.344;2022-07-22T03:05:41;101487.94;;;26.84;32.78
13478;BME280;12598;62.382;17.344;2022-07-22T03:07:06;101475.03;;;26.86;32.69
13478;BME280;12598;62.382;17.344;2022-07-22T03:08:08;101479.41;;;26.87;32.62
13478;BME280;12598;62.382;17.344;2022-07-22T03:09:10;101479.59;;;26.86;32.73
13478;BME280;12598;62.382;17.344;2022-07-22T03:10:16;101472.84;;;26.82;32.81
13478;BME280;12598;62.382;17.344;2022-07-22T03:11:18;101487.94;;;26.84;32.82
13478;BME280;12598;62.382;17.344;2022-07-22T03:12:20;101467.69;;;26.72;32.63
13478;BME280;12598;62.382;17.344;2022-07-22T03:13:22;101468.72;;;26.71;32.64
13478;BME280;12598;62.382;17.344;2022-07-22T03:14:24;101486.44;;;26.82;32.91
13478;BME280;12598;62.382;17.344;2022-07-22T03:15:27;101489.16;;;26.82;32.48
13478;BME280;12598;62.382;17.344;2022-07-22T03:16:29;101490.00;;;26.82;32.64
13478;BME280;12598;62.382;17.344;2022-07-22T03:17:35;101492.22;;;26.79;32.59
13478;BME280;12598;62.382;17.344;2022-07-22T03:18:39;101495.22;;;26.84;32.68
13478;BME280;12598;62.382;17.344;2022-07-22T03:19:41;101494.78;;;26.80;32.83
13478;BME280;12598;62.382;17.344;2022-07-22T03:20:43;101489.34;;;26.80;32.73
13478;BME280;12598;62.382;17.344;2022-07-22T03:21:45;101491.59;;;26.77;32.81
13478;BME280;12598;62.382;17.344;2022-07-22T03:22:47;101483.97;;;26.72;32.44
13478;BME280;12598;62.382;17.344;2022-07-22T03:23:49;101490.38;;;26.79;32.67
13478;BME280;12598;62.382;17.344;2022-07-22T03:24:55;101485.88;;;26.72;32.55
13478;BME280;12598;62.382;17.344;2022-07-22T03:25:57;101487.72;;;26.71;32.52
13478;BME280;12598;62.382;17.344;2022-07-22T03:27:00;101493.63;;;26.75;32.91
13478;BME280;12598;62.382;17.344;2022-07-22T03:28:05;101480.81;;;26.69;32.38
13478;BME280;12598;62.382;17.344;2022-07-22T03:29:07;101502.22;;;26.78;32.31
13478;BME280;12598;62.382;17.344;2022-07-22T03:30:09;101499.53;;;26.78;32.74
13478;BME280;12598;62.382;17.344;2022-07-22T03:31:13;101505.81;;;26.79;32.73
13478;BME280;12598;62.382;17.344;2022-07-22T03:32:17;101506.66;;;26.79;32.63
13478;BME280;12598;62.382;17.344;2022-07-22T03:33:21;101489.41;;;26.72;32.50
13478;BME280;12598;62.382;17.344;2022-07-22T03:34:24;101498.53;;;26.79;32.67
13478;BME280;12598;62.382;17.344;2022-07-22T03:35:33;101489.41;;;26.72;32.77
13478;BME280;12598;62.382;17.344;2022-07-22T03:36:35;101498.53;;;26.79;32.50
13478;BME280;12598;62.382;17.344;2022-07-22T03:37:37;101490.91;;;26.75;32.60
13478;BME280;12598;62.382;17.344;2022-07-22T03:38:39;101490.53;;;26.78;32.65
13478;BME280;12598;62.382;17.344;2022-07-22T03:39:41;101492.41;;;26.77;32.61
13478;BME280;12598;62.382;17.344;2022-07-22T03:40:45;101481.66;;;26.69;32.86
13478;BME280;12598;62.382;17.344;2022-07-22T03:41:47;101478.94;;;26.69;32.63
13478;BME280;12598;62.382;17.344;2022-07-22T03:42:50;101474.75;;;26.67;32.40
13478;BME280;12598;62.382;17.344;2022-07-22T03:43:52;101481.28;;;26.72;32.52
13478;BME280;12598;62.382;17.344;2022-07-22T03:44:55;101463.13;;;26.58;32.69
13478;BME280;12598;62.382;17.344;2022-07-22T03:45:56;101485.38;;;26.68;32.86
13478;BME280;12598;62.382;17.344;2022-07-22T03:46:59;101484.72;;;26.66;32.89
13478;BME280;12598;62.382;17.344;2022-07-22T03:48:01;101494.47;;;26.75;32.76
13478;BME280;12598;62.382;17.344;2022-07-22T03:49:09;101495.81;;;26.79;32.55
13478;BME280;12598;62.382;17.344;2022-07-22T03:50:11;101481.47;;;26.71;32.57
13478;BME280;12598;62.382;17.344;2022-07-22T03:51:13;101495.31;;;26.76;32.68
13478;BME280;12598;62.382;17.344;2022-07-22T03:52:15;101493.81;;;26.73;32.69
13478;BME280;12598;62.382;17.344;2022-07-22T03:53:17;101505.31;;;26.75;32.68
13478;BME280;12598;62.382;17.344;2022-07-22T03:54:19;101487.81;;;26.63;32.47
13478;BME280;12598;62.382;17.344;2022-07-22T03:55:21;101480.91;;;26.61;32.75
13478;BME280;12598;62.382;17.344;2022-07-22T03:56:26;101482.13;;;26.58;32.84
13478;BME280;12598;62.382;17.344;2022-07-22T03:57:28;101497.28;;;26.67;32.29
13478;BME280;12598;62.382;17.344;2022-07-22T03:58:42;101510.38;;;26.78;32.46
13478;BME280;12598;62.382;17.344;2022-07-22T03:59:44;101509.72;;;26.76;32.47
13478;BME280;12598;62.382;17.344;2022-07-22T04:00:46;101498.97;;;26.68;32.33
13478;BME280;12598;62.382;17.344;2022-07-22T04:01:48;101504.22;;;26.70;32.53
13478;BME280;12598;62.382;17.344;2022-07-22T04:02:51;101487.00;;;26.63;32.36
13478;BME280;12598;62.382;17.344;2022-07-22T04:04:02;101517.69;;;26.78;32.61
13478;BME280;12598;62.382;17.344;2022-07-22T04:05:12;101493.16;;;26.71;32.57
13478;BME280;12598;62.382;17.344;2022-07-22T04:06:15;101488.03;;;26.62;32.55
13478;BME280;12598;62.382;17.344;2022-07-22T04:07:25;101499.81;;;26.69;32.50
13478;BME280;12598;62.382;17.344;2022-07-22T04:08:26;101517.03;;;26.76;32.50
13478;BME280;12598;62.382;17.344;2022-07-22T04:09:28;101518.22;;;26.73;32.62
13478;BME280;12598;62.382;17.344;2022-07-22T04:10:30;101522.84;;;26.73;32.34
13478;BME280;12598;62.382;17.344;2022-07-22T04:11:33;101515.72;;;26.72;32.53
13478;BME280;12598;62.382;17.344;2022-07-22T04:12:36;101490.78;;;26.54;32.72
13478;BME280;12598;62.382;17.344;2022-07-22T04:14:05;101517.31;;;26.81;32.50
13478;BME280;12598;62.382;17.344;2022-07-22T04:15:07;101501.66;;;26.68;32.66
13478;BME280;12598;62.382;17.344;2022-07-22T04:16:10;101512.63;;;26.75;32.83
13478;BME280;12598;62.382;17.344;2022-07-22T04:17:19;101519.75;;;26.76;32.38
13478;BME280;12598;62.382;17.344;2022-07-22T04:18:21;101502.41;;;26.62;32.56
13478;BME280;12598;62.382;17.344;2022-07-22T04:19:23;101500.56;;;26.63;32.69
13478;BME280;12598;62.382;17.344;2022-07-22T04:20:28;101507.66;;;26.64;32.49
13478;BME280;12598;62.382;17.344;2022-07-22T04:21:48;101517.41;;;26.73;32.17
13478;BME280;12598;62.382;17.344;2022-07-22T04:22:51;101502.63;;;26.61;32.61
13478;BME280;12598;62.382;17.344;2022-07-22T04:23:53;101518.31;;;26.65;32.42
13478;BME280;12598;62.382;17.344;2022-07-22T04:25:04;101532.66;;;26.74;32.62
13478;BME280;12598;62.382;17.344;2022-07-22T04:26:06;101520.28;;;26.71;32.69
13478;BME280;12598;62.382;17.344;2022-07-22T04:27:08;101530.97;;;26.73;32.65
13478;BME280;12598;62.382;17.344;2022-07-22T04:28:11;101511.59;;;26.61;32.62
13478;BME280;12598;62.382;17.344;2022-07-22T04:29:15;101535.75;;;26.71;32.76
13478;BME280;12598;62.382;17.344;2022-07-22T04:30:17;101526.09;;;26.68;32.62
13478;BME280;12598;62.382;17.344;2022-07-22T04:31:23;101534.72;;;26.72;32.47
13478;BME280;12598;62.382;17.344;2022-07-22T04:32:31;101539.13;;;26.73;32.56
13478;BME280;12598;62.382;17.344;2022-07-22T04:33:33;101542.84;;;26.72;32.48
13478;BME280;12598;62.382;17.344;2022-07-22T04:34:35;101546.59;;;26.71;32.42
13478;BME280;12598;62.382;17.344;2022-07-22T04:35:37;101535.91;;;26.69;32.42
13478;BME280;12598;62.382;17.344;2022-07-22T04:36:46;101526.47;;;26.65;32.49
13478;BME280;12598;62.382;17.344;2022-07-22T04:37:48;101523.28;;;26.62;32.54
13478;BME280;12598;62.382;17.344;2022-07-22T04:38:50;101539.50;;;26.70;32.26
13478;BME280;12598;62.382;17.344;2022-07-22T04:39:53;101544.06;;;26.69;32.12
13478;BME280;12598;62.382;17.344;2022-07-22T04:40:55;101533.19;;;26.69;32.48
13478;BME280;12598;62.382;17.344;2022-07-22T04:41:58;101517.09;;;26.53;32.25
13478;BME280;12598;62.382;17.344;2022-07-22T04:43:01;101536.78;;;26.70;32.77
13478;BME280;12598;62.382;17.344;2022-07-22T04:44:03;101545.94;;;26.69;32.65
13478;BME280;12598;62.382;17.344;2022-07-22T04:45:07;101528.06;;;26.60;32.39
13478;BME280;12598;62.382;17.344;2022-07-22T04:46:09;101545.09;;;26.68;32.25
13478;BME280;12598;62.382;17.344;2022-07-22T04:47:15;101545.75;;;26.70;32.31
13478;BME280;12598;62.382;17.344;2022-07-22T04:48:18;101555.13;;;26.68;32.67
13478;BME280;12598;62.382;17.344;2022-07-22T04:49:22;101532.25;;;26.62;32.36
13478;BME280;12598;62.382;17.344;2022-07-22T04:50:24;101539.09;;;26.58;32.53
13478;BME280;12598;62.382;17.344;2022-07-22T04:51:33;101533.28;;;26.61;32.94
13478;BME280;12598;62.382;17.344;2022-07-22T04:52:39;101533.94;;;26.63;32.36
13478;BME280;12598;62.382;17.344;2022-07-22T04:53:47;101545.47;;;26.65;32.45
13478;BME280;12598;62.382;17.344;2022-07-22T04:54:54;101552.78;;;26.65;31.88
13478;BME280;12598;62.382;17.344;2022-07-22T04:55:56;101555.94;;;26.68;32.29
13478;BME280;12598;62.382;17.344;2022-07-22T04:56:58;101547.13;;;26.66;32.66
13478;BME280;12598;62.382;17.344;2022-07-22T04:58:00;101558.00;;;26.66;32.40
13478;BME280;12598;62.382;17.344;2022-07-22T04:59:03;101537.94;;;26.53;32.48
13478;BME280;12598;62.382;17.344;2022-07-22T05:00:07;101522.69;;;26.52;32.44
13478;BME280;12598;62.382;17.344;2022-07-22T05:01:19;101550.50;;;26.68;32.68
13478;BME280;12598;62.382;17.344;2022-07-22T05:02:23;101529.63;;;26.54;32.68
13478;BME280;12598;62.382;17.344;2022-07-22T05:03:26;101553.44;;;26.67;32.31
13478;BME280;12598;62.382;17.344;2022-07-22T05:04:29;101550.72;;;26.67;32.44
13478;BME280;12598;62.382;17.344;2022-07-22T05:05:31;101551.75;;;26.66;32.82
13478;BME280;12598;62.382;17.344;2022-07-22T05:06:33;101550.72;;;26.67;32.36
13478;BME280;12598;62.382;17.344;2022-07-22T05:07:36;101551.91;;;26.64;32.49
13478;BME280;12598;62.382;17.344;2022-07-22T05:08:38;101562.97;;;26.63;32.31
13478;BME280;12598;62.382;17.344;2022-07-22T05:09:40;101549.84;;;26.66;32.16
13478;BME280;12598;62.382;17.344;2022-07-22T05:10:45;101555.94;;;26.68;32.37
13478;BME280;12598;62.382;17.344;2022-07-22T05:11:47;101559.69;;;26.67;32.33
13478;BME280;12598;62.382;17.344;2022-07-22T05:12:52;101555.78;;;26.70;32.38
13478;BME280;12598;62.382;17.344;2022-07-22T05:13:54;101550.22;;;26.63;32.35
13478;BME280;12598;62.382;17.344;2022-07-22T05:14:56;101544.81;;;26.63;32.23
13478;BME280;12598;62.382;17.344;2022-07-22T05:16:02;101545.09;;;26.68;32.09
13478;BME280;12598;62.382;17.344;2022-07-22T05:17:11;101545.38;;;26.73;32.29
13478;BME280;12598;62.382;17.344;2022-07-22T05:18:29;101553.75;;;26.86;32.19
13478;BME280;12598;62.382;17.344;2022-07-22T05:19:32;101528.72;;;26.76;32.15
13478;BME280;12598;62.382;17.344;2022-07-22T05:20:34;101541.84;;;26.87;32.16
13478;BME280;12598;62.382;17.344;2022-07-22T05:21:36;101537.16;;;26.81;32.08
13478;BME280;12598;62.382;17.344;2022-07-22T05:22:38;101541.47;;;26.90;31.78
13478;BME280;12598;62.382;17.344;2022-07-22T05:23:46;101537.34;;;26.94;31.65
13478;BME280;12598;62.382;17.344;2022-07-22T05:24:50;101537.34;;;26.94;31.70
13478;BME280;12598;62.382;17.344;2022-07-22T05:25:52;101545.78;;;26.99;32.00
13478;BME280;12598;62.382;17.344;2022-07-22T05:26:54;101528.84;;;26.97;31.92